Time;durP1;ratioP1;P1;durP2;ratioP2;P2;SDS_P1;SDS_P2;PMS_P1;PMS_P2;Temp;Humidity;BMP_temperature;BMP_pressure;BME280_temperature;BME280_humidity;BME280_pressure;Samples;Min_cycle;Max_cycle;Signal;HPM_P1;HPM_P2
2022/11/04 00:01:25;;;;;;;1.70;1.60;;;;;;;;;;5056733;28;20175;-66
2022/11/04 00:03:52;;;;;;;1.80;1.70;;;;;;;;;;5038623;28;20182;-67
2022/11/04 00:06:17;;;;;;;2.17;1.90;;;;;;;;;;5056561;28;20249;-67
2022/11/04 00:08:47;;;;;;;2.13;1.60;;;;;;;;;;5057116;28;20316;-66
2022/11/04 00:13:58;;;;;;;1.83;1.70;;;;;;;;;;5057190;28;20276;-66
2022/11/04 00:19:09;;;;;;;4.80;2.30;;;;;;;;;;5056787;28;20225;-66
2022/11/04 00:29:48;;;;;;;2.50;2.03;;;;;;;;;;5055987;28;20393;-67
2022/11/04 00:34:59;;;;;;;2.87;2.33;;;;;;;;;;5056593;28;20227;-69
2022/11/04 00:37:24;;;;;;;2.97;1.93;;;;;;;;;;5056229;28;20588;-67
2022/11/04 00:39:50;;;;;;;2.33;2.13;;;;;;;;;;5055918;28;20236;-67
2022/11/04 00:42:16;;;;;;;2.93;2.10;;;;;;;;;;5056071;28;20193;-66
2022/11/04 00:44:42;;;;;;;4.10;2.50;;;;;;;;;;5055765;28;20179;-66
2022/11/04 00:47:08;;;;;;;2.60;2.30;;;;;;;;;;5055574;28;20273;-67
2022/11/04 00:49:34;;;;;;;2.70;2.50;;;;;;;;;;5037253;28;20202;-67
2022/11/04 00:52:00;;;;;;;3.57;2.60;;;;;;;;;;5054941;28;20170;-68
2022/11/04 00:54:26;;;;;;;3.43;2.60;;;;;;;;;;5056442;28;20209;-66
2022/11/04 00:56:52;;;;;;;2.87;2.67;;;;;;;;;;5055895;28;20179;-66
2022/11/04 00:59:18;;;;;;;2.93;2.60;;;;;;;;;;5055722;28;20198;-66
2022/11/04 01:01:45;;;;;;;4.77;3.13;;;;;;;;;;5055667;28;20190;-65
2022/11/04 01:04:11;;;;;;;3.60;3.23;;;;;;;;;;5037745;28;20182;-65
2022/11/04 01:06:37;;;;;;;5.03;3.07;;;;;;;;;;5055315;28;20197;-66
2022/11/04 01:09:07;;;;;;;3.30;3.00;;;;;;;;;;5055873;28;20194;-66
2022/11/04 01:11:32;;;;;;;5.30;3.40;;;;;;;;;;5055811;28;20192;-66
2022/11/04 01:13:59;;;;;;;3.23;3.03;;;;;;;;;;5055980;28;20178;-66
2022/11/04 01:16:25;;;;;;;3.90;3.20;;;;;;;;;;5055752;28;20175;-66
2022/11/04 01:18:51;;;;;;;3.97;3.60;;;;;;;;;;5056314;28;20226;-66
2022/11/04 01:21:17;;;;;;;4.07;3.73;;;;;;;;;;5039908;28;20179;-66
2022/11/04 01:23:44;;;;;;;4.30;3.60;;;;;;;;;;5058164;28;20170;-67
2022/11/04 01:26:12;;;;;;;4.07;3.70;;;;;;;;;;5057927;28;20240;-66
2022/11/04 01:28:38;;;;;;;3.67;3.37;;;;;;;;;;5058631;28;20194;-66
2022/11/04 01:31:07;;;;;;;5.43;4.10;;;;;;;;;;5058579;28;20163;-66
2022/11/04 01:33:33;;;;;;;4.03;3.60;;;;;;;;;;5058678;28;20183;-66
2022/11/04 01:36:00;;;;;;;4.00;3.67;;;;;;;;;;5058912;28;20186;-66
2022/11/04 01:38:26;;;;;;;3.77;3.47;;;;;;;;;;5037684;28;20185;-66
2022/11/04 01:40:52;;;;;;;4.97;3.50;;;;;;;;;;5055146;28;20277;-67
2022/11/04 01:43:19;;;;;;;4.43;3.80;;;;;;;;;;5054682;28;20550;-66
2022/11/04 01:45:50;;;;;;;5.77;3.13;;;;;;;;;;5054842;28;20198;-67
2022/11/04 01:48:22;;;;;;;6.43;4.00;;;;;;;;;;5036906;28;20198;-66
2022/11/04 01:50:48;;;;;;;4.63;3.60;;;;;;;;;;5036740;28;20194;-66
2022/11/04 01:53:20;;;;;;;5.97;3.70;;;;;;;;;;5054672;28;20174;-68
2022/11/04 01:55:51;;;;;;;7.10;3.43;;;;;;;;;;5054584;28;20163;-66
2022/11/04 01:58:17;;;;;;;5.47;3.83;;;;;;;;;;5036636;28;20179;-68
2022/11/04 02:00:44;;;;;;;4.17;3.77;;;;;;;;;;5054269;28;20697;-68
2022/11/04 02:03:18;;;;;;;7.77;3.43;;;;;;;;;;5089559;22;20233;-70
2022/11/04 02:05:44;;;;;;;5.77;3.43;;;;;;;;;;5073993;28;20178;-70
2022/11/04 02:08:10;;;;;;;;;;;;;;;;;;5073066;28;20208;-70
2022/11/04 02:10:36;;;;;;;;;;;;;;;;;;5074384;28;19947;-70
2022/11/04 02:13:03;;;;;;;6.33;3.47;;;;;;;;;;5074019;28;20092;-70
2022/11/04 02:15:38;;;;;;;4.77;3.50;;;;;;;;;;5074021;28;20177;-70
2022/11/04 02:18:03;;;;;;;6.83;3.70;;;;;;;;;;5073977;28;20208;-70
2022/11/04 02:20:38;;;;;;;5.77;3.73;;;;;;;;;;5074085;28;20638;-69
2022/11/04 02:23:24;;;;;;;6.50;3.47;;;;;;;;;;5074169;28;20195;-70
2022/11/04 02:25:53;;;;;;;5.73;3.70;;;;;;;;;;5072532;28;20181;-70
2022/11/04 02:28:22;;;;;;;4.53;3.70;;;;;;;;;;5072454;28;20744;-71
2022/11/04 02:30:59;;;;;;;7.37;4.10;;;;;;;;;;5074189;28;20689;-70
2022/11/04 02:33:30;;;;;;;6.07;4.10;;;;;;;;;;5074070;28;20194;-69
2022/11/04 02:36:04;;;;;;;6.97;4.33;;;;;;;;;;5074006;28;20174;-70
2022/11/04 02:38:29;;;;;;;5.40;4.13;;;;;;;;;;5073681;28;20668;-70
2022/11/04 02:40:55;;;;;;;6.33;4.90;;;;;;;;;;5073549;28;20256;-71
2022/11/04 02:43:26;;;;;;;5.50;4.00;;;;;;;;;;5072167;28;20229;-70
2022/11/04 02:46:00;;;;;;;7.13;4.00;;;;;;;;;;5073404;28;20174;-70
2022/11/04 02:48:31;;;;;;;6.43;4.00;;;;;;;;;;5072194;28;20204;-70
2022/11/04 02:51:05;;;;;;;8.20;4.00;;;;;;;;;;5073709;28;20214;-71
2022/11/04 02:53:36;;;;;;;7.67;3.50;;;;;;;;;;5073382;28;20193;-70
2022/11/04 02:56:03;;;;;;;9.83;4.37;;;;;;;;;;5073843;28;20165;-69
2022/11/04 02:58:33;;;;;;;5.93;3.53;;;;;;;;;;5073697;28;20264;-69
2022/11/04 03:01:00;;;;;;;7.60;3.33;;;;;;;;;;5072225;28;20209;-68
2022/11/04 03:03:27;;;;;;;5.37;3.07;;;;;;;;;;5071763;28;20217;-68
2022/11/04 03:05:55;;;;;;;7.57;3.27;;;;;;;;;;5073401;28;20177;-69
2022/11/04 03:08:30;;;;;;;8.70;3.20;;;;;;;;;;5073476;28;20202;-68
2022/11/04 03:10:58;;;;;;;8.70;3.40;;;;;;;;;;5075088;28;20173;-68
2022/11/04 03:13:31;;;;;;;9.93;3.30;;;;;;;;;;5080285;28;20190;-69
2022/11/04 03:15:59;;;;;;;6.63;3.23;;;;;;;;;;5085846;28;20181;-70
2022/11/04 03:18:46;;;;;;;6.57;2.73;;;;;;;;;;5085026;28;20174;-69
2022/11/04 03:21:12;;;;;;;12.27;2.90;;;;;;;;;;5080172;28;20170;-69
2022/11/04 03:23:39;;;;;;;7.53;3.10;;;;;;;;;;5078655;28;20209;-69
2022/11/04 03:26:11;;;;;;;7.43;2.93;;;;;;;;;;5079783;28;20178;-69
2022/11/04 03:28:43;;;;;;;9.93;2.70;;;;;;;;;;5078349;28;20216;-67
2022/11/04 03:31:12;;;;;;;7.23;3.20;;;;;;;;;;5078467;28;20583;-69
2022/11/04 03:33:49;;;;;;;6.37;2.87;;;;;;;;;;5078303;28;20719;-69
2022/11/04 03:36:16;;;;;;;7.43;2.70;;;;;;;;;;5078395;28;20645;-69
2022/11/04 03:38:42;;;;;;;4.93;2.93;;;;;;;;;;5078488;28;20205;-69
2022/11/04 03:41:31;;;;;;;6.30;2.83;;;;;;;;;;5078334;28;20182;-68
2022/11/04 03:43:57;;;;;;;7.87;2.90;;;;;;;;;;5071643;28;20220;-69
2022/11/04 03:46:24;;;;;;;8.77;3.27;;;;;;;;;;5078220;28;20181;-69
2022/11/04 03:48:52;;;;;;;5.83;2.70;;;;;;;;;;5078300;28;20174;-68
2022/11/04 03:51:18;;;;;;;6.73;2.67;;;;;;;;;;5079489;28;20546;-69
2022/11/04 03:53:44;;;;;;;8.67;2.80;;;;;;;;;;5078231;28;20197;-69
2022/11/04 03:56:27;;;;;;;6.10;3.03;;;;;;;;;;5079696;28;20184;-69
2022/11/04 03:58:57;;;;;;;8.30;2.63;;;;;;;;;;5080171;28;20168;-70
2022/11/04 04:01:38;;;;;;;10.10;3.20;;;;;;;;;;5078183;28;20235;-70
2022/11/04 04:04:24;;;;;;;6.80;2.97;;;;;;;;;;5079186;28;20205;-68
2022/11/04 04:06:51;;;;;;;8.30;3.10;;;;;;;;;;5068771;28;20217;-69
2022/11/04 04:09:26;;;;;;;9.83;3.37;;;;;;;;;;5079601;28;20201;-69
2022/11/04 04:11:55;;;;;;;9.17;3.10;;;;;;;;;;5079295;28;20177;-69
2022/11/04 04:14:39;;;;;;;7.97;2.90;;;;;;;;;;5079360;28;20197;-69
2022/11/04 04:17:12;;;;;;;6.83;3.10;;;;;;;;;;5080044;28;20200;-69
2022/11/04 04:19:38;;;;;;;8.87;2.90;;;;;;;;;;5078716;28;20555;-69
2022/11/04 04:22:09;;;;;;;7.70;3.00;;;;;;;;;;5078801;28;20273;-69
2022/11/04 04:27:31;;;;;;;7.50;3.10;;;;;;;;;;5076740;28;20204;-71
2022/11/04 04:29:59;;;;;;;12.83;3.87;;;;;;;;;;5076192;28;20223;-69
2022/11/04 04:32:26;;;;;;;9.50;3.60;;;;;;;;;;5075096;28;20578;-69
2022/11/04 04:35:40;;;;;;;10.87;3.37;;;;;;;;;;5075913;28;20180;-69
2022/11/04 04:37:39;;;;;;;6.10;2.73;;;;;;;;;;5075724;28;20284;-69
2022/11/04 04:45:37;;;;;;;10.80;3.23;;;;;;;;;;5075971;28;20251;-70
2022/11/04 04:48:03;;;;;;;12.80;3.83;;;;;;;;;;5074446;28;20202;-70
2022/11/04 04:50:35;;;;;;;9.03;3.10;;;;;;;;;;5075716;28;20227;-69
2022/11/04 04:53:02;;;;;;;11.27;4.07;;;;;;;;;;5075499;28;20200;-69
2022/11/04 04:55:30;;;;;;;11.83;4.27;;;;;;;;;;5076137;28;20549;-69
2022/11/04 04:57:56;;;;;;;12.83;4.70;;;;;;;;;;5074303;28;20664;-69
2022/11/04 05:00:22;;;;;;;11.20;4.27;;;;;;;;;;5074210;28;20182;-69
2022/11/04 05:02:48;;;;;;;13.10;4.50;;;;;;;;;;5075297;28;20264;-69
2022/11/04 05:05:15;;;;;;;15.57;4.53;;;;;;;;;;5074087;28;20178;-69
2022/11/04 05:07:41;;;;;;;11.33;4.50;;;;;;;;;;5075233;28;20280;-69
2022/11/04 05:10:08;;;;;;;17.00;4.80;;;;;;;;;;5075320;28;20586;-69
2022/11/04 05:15:19;;;;;;;11.60;4.23;;;;;;;;;;5075468;28;20177;-69
2022/11/04 05:17:45;;;;;;;14.10;4.40;;;;;;;;;;5073801;28;20178;-69
2022/11/04 05:20:11;;;;;;;12.93;3.90;;;;;;;;;;5074980;28;20189;-69
2022/11/04 05:22:37;;;;;;;16.93;4.50;;;;;;;;;;5074664;28;20292;-70
2022/11/04 05:25:03;;;;;;;13.87;4.23;;;;;;;;;;5073692;28;20213;-69
2022/11/04 05:27:29;;;;;;;8.77;3.87;;;;;;;;;;5075173;28;20271;-69
2022/11/04 05:29:55;;;;;;;18.97;4.73;;;;;;;;;;5074806;28;20169;-69
2022/11/04 05:32:21;;;;;;;14.27;5.33;;;;;;;;;;5074998;28;20684;-69
2022/11/04 05:34:47;;;;;;;12.67;4.17;;;;;;;;;;5075185;28;20174;-70
2022/11/04 05:37:13;;;;;;;14.07;4.90;;;;;;;;;;5073258;28;20201;-68
2022/11/04 05:39:39;;;;;;;11.63;4.80;;;;;;;;;;5073419;28;20630;-69
2022/11/04 05:42:05;;;;;;;14.20;4.43;;;;;;;;;;5074538;28;20192;-70
2022/11/04 05:44:30;;;;;;;14.97;4.80;;;;;;;;;;5074082;28;20216;-69
2022/11/04 05:46:56;;;;;;;14.73;4.80;;;;;;;;;;5076237;28;20202;-69
2022/11/04 05:49:22;;;;;;;18.60;4.93;;;;;;;;;;5074827;28;20181;-69
2022/11/04 05:51:48;;;;;;;15.77;5.30;;;;;;;;;;5076244;28;20667;-69
2022/11/04 05:54:14;;;;;;;12.47;4.70;;;;;;;;;;5073568;28;20293;-69
2022/11/04 05:56:40;;;;;;;15.07;4.43;;;;;;;;;;5073315;28;20221;-71
2022/11/04 05:59:06;;;;;;;13.47;4.90;;;;;;;;;;5074677;28;20173;-69
2022/11/04 06:01:37;;;;;;;13.97;4.83;;;;;;;;;;5073541;28;20565;-73
2022/11/04 06:04:04;;;;;;;14.37;4.50;;;;;;;;;;5074544;28;20636;-69
2022/11/04 06:06:31;;;;;;;13.77;3.97;;;;;;;;;;5074281;28;20557;-69
2022/11/04 06:08:57;;;;;;;16.57;4.50;;;;;;;;;;5072878;28;20174;-69
2022/11/04 06:11:24;;;;;;;11.27;3.60;;;;;;;;;;5074588;28;20201;-69
2022/11/04 06:13:50;;;;;;;14.17;4.23;;;;;;;;;;5074058;28;20194;-69
2022/11/04 06:16:16;;;;;;;13.50;3.83;;;;;;;;;;5074054;28;20184;-69
2022/11/04 06:18:42;;;;;;;11.43;3.47;;;;;;;;;;5072636;28;20188;-69
2022/11/04 06:21:14;;;;;;;13.60;3.33;;;;;;;;;;5073807;28;20189;-69
2022/11/04 06:23:41;;;;;;;17.30;3.43;;;;;;;;;;5072649;28;20288;-70
2022/11/04 06:26:07;;;;;;;10.03;2.67;;;;;;;;;;5074212;28;20204;-70
2022/11/04 06:28:33;;;;;;;10.80;3.23;;;;;;;;;;5073692;28;20236;-69
2022/11/04 06:31:00;;;;;;;10.80;3.40;;;;;;;;;;5073856;28;20638;-70
2022/11/04 06:33:27;;;;;;;9.87;3.20;;;;;;;;;;5072531;28;20678;-69
2022/11/04 06:35:56;;;;;;;10.40;3.20;;;;;;;;;;5073533;28;20174;-69
2022/11/04 06:38:22;;;;;;;13.47;3.30;;;;;;;;;;5072186;28;20222;-69
2022/11/04 06:40:48;;;;;;;11.87;3.37;;;;;;;;;;5073599;28;20263;-69
2022/11/04 06:43:14;;;;;;;10.23;3.77;;;;;;;;;;5073573;28;20205;-70
2022/11/04 06:45:40;;;;;;;12.47;3.53;;;;;;;;;;5074239;28;20583;-70
2022/11/04 06:48:06;;;;;;;13.13;3.60;;;;;;;;;;5071419;28;20248;-70
2022/11/04 06:50:32;;;;;;;9.77;3.57;;;;;;;;;;5073627;28;20223;-69
2022/11/04 06:52:58;;;;;;;10.97;2.73;;;;;;;;;;5073589;28;20263;-69
2022/11/04 06:55:24;;;;;;;6.17;3.20;;;;;;;;;;5073568;28;20170;-70
2022/11/04 06:57:50;;;;;;;10.33;3.50;;;;;;;;;;5073542;28;20261;-69
2022/11/04 07:00:16;;;;;;;8.50;3.30;;;;;;;;;;5073421;28;20178;-69
2022/11/04 07:02:42;;;;;;;11.07;3.20;;;;;;;;;;5073523;28;20212;-69
2022/11/04 07:05:08;;;;;;;12.37;3.80;;;;;;;;;;5072229;28;20564;-70
2022/11/04 07:07:34;;;;;;;9.70;3.57;;;;;;;;;;5073205;28;20194;-69
2022/11/04 07:10:00;;;;;;;10.27;3.20;;;;;;;;;;5073592;28;20173;-69
2022/11/04 07:12:26;;;;;;;11.30;3.60;;;;;;;;;;5071913;28;20201;-70
2022/11/04 07:14:52;;;;;;;10.33;3.70;;;;;;;;;;5073368;28;20185;-71
2022/11/04 07:17:18;;;;;;;12.57;3.90;;;;;;;;;;5073069;28;20178;-69
2022/11/04 07:19:44;;;;;;;14.57;4.07;;;;;;;;;;5071951;28;20173;-69
2022/11/04 07:22:10;;;;;;;18.03;4.20;;;;;;;;;;5073173;28;20213;-71
2022/11/04 07:24:36;;;;;;;9.37;3.73;;;;;;;;;;5071929;28;20181;-71
2022/11/04 07:27:02;;;;;;;17.33;4.23;;;;;;;;;;5073156;28;20255;-70
2022/11/04 07:29:27;;;;;;;7.87;3.70;;;;;;;;;;5071625;28;20177;-70
2022/11/04 07:31:53;;;;;;;13.87;4.97;;;;;;;;;;5073181;28;20174;-69
2022/11/04 07:34:19;;;;;;;8.93;3.80;;;;;;;;;;5073076;28;20189;-69
2022/11/04 07:36:45;;;;;;;8.40;3.10;;;;;;;;;;5072886;28;20268;-70
2022/11/04 07:39:11;;;;;;;12.03;3.37;;;;;;;;;;5072886;28;20248;-70
2022/11/04 07:41:37;;;;;;;12.90;3.83;;;;;;;;;;5071841;28;20194;-69
2022/11/04 07:44:04;;;;;;;6.90;3.20;;;;;;;;;;5072695;28;20205;-69
2022/11/04 07:46:31;;;;;;;11.97;4.17;;;;;;;;;;5071326;28;20178;-70
2022/11/04 07:49:00;;;;;;;9.30;3.53;;;;;;;;;;5072691;28;20197;-69
2022/11/04 07:51:26;;;;;;;9.57;3.07;;;;;;;;;;5072736;28;20178;-69
2022/11/04 07:53:52;;;;;;;7.60;3.20;;;;;;;;;;5072632;28;20718;-70
2022/11/04 07:56:18;;;;;;;8.30;3.20;;;;;;;;;;5071423;28;20190;-69
2022/11/04 07:58:44;;;;;;;11.07;3.60;;;;;;;;;;5072869;28;20615;-69
2022/11/04 08:01:12;;;;;;;8.13;3.13;;;;;;;;;;5074950;28;20252;-71
2022/11/04 08:03:39;;;;;;;9.77;3.27;;;;;;;;;;5074869;28;20772;-70
2022/11/04 08:06:05;;;;;;;15.30;3.43;;;;;;;;;;5076290;28;20182;-70
2022/11/04 08:08:31;;;;;;;12.13;3.13;;;;;;;;;;5076218;28;20193;-70
2022/11/04 08:10:59;;;;;;;9.03;3.23;;;;;;;;;;5076224;28;20276;-70
2022/11/04 08:13:29;;;;;;;10.60;3.70;;;;;;;;;;5076105;28;20198;-70
2022/11/04 08:15:55;;;;;;;11.60;3.70;;;;;;;;;;5076072;28;20270;-70
2022/11/04 08:18:21;;;;;;;11.73;2.97;;;;;;;;;;5076285;28;20661;-70
2022/11/04 08:20:48;;;;;;;7.43;3.50;;;;;;;;;;5076301;28;20545;-70
2022/11/04 08:23:14;;;;;;;10.23;3.43;;;;;;;;;;5075952;28;20280;-70
2022/11/04 08:25:40;;;;;;;12.50;5.13;;;;;;;;;;5075924;28;20181;-70
2022/11/04 08:28:06;;;;;;;9.13;3.90;;;;;;;;;;5076347;28;20197;-71
2022/11/04 08:30:32;;;;;;;12.63;3.93;;;;;;;;;;5075812;28;20182;-71
2022/11/04 08:32:58;;;;;;;9.20;3.30;;;;;;;;;;5074563;28;20198;-71
2022/11/04 08:35:24;;;;;;;12.13;3.17;;;;;;;;;;5076135;28;20200;-70
2022/11/04 08:37:50;;;;;;;14.53;3.13;;;;;;;;;;5076180;28;20652;-70
2022/11/04 08:40:16;;;;;;;12.17;3.53;;;;;;;;;;5074645;28;20268;-70
2022/11/04 08:42:42;;;;;;;6.20;3.23;;;;;;;;;;5075739;28;20236;-70
2022/11/04 08:45:08;;;;;;;11.20;3.83;;;;;;;;;;5075849;28;20217;-70
2022/11/04 08:47:34;;;;;;;11.63;3.40;;;;;;;;;;5076073;28;20189;-71
2022/11/04 08:50:00;;;;;;;11.67;3.87;;;;;;;;;;5075834;28;20660;-70
2022/11/04 08:52:26;;;;;;;12.67;4.47;;;;;;;;;;5075895;28;20198;-70
2022/11/04 08:54:55;;;;;;;10.23;4.03;;;;;;;;;;5076251;28;20185;-71
2022/11/04 08:57:21;;;;;;;14.17;4.63;;;;;;;;;;5074623;28;20270;-71
2022/11/04 08:59:47;;;;;;;15.73;4.47;;;;;;;;;;5076128;28;20653;-71
2022/11/04 09:02:17;;;;;;;12.30;5.57;;;;;;;;;;5074317;28;20634;-71
2022/11/04 09:04:43;;;;;;;14.20;5.80;;;;;;;;;;5075971;28;20228;-70
2022/11/04 09:07:09;;;;;;;11.10;6.00;;;;;;;;;;5078089;28;20201;-70
2022/11/04 09:09:35;;;;;;;14.13;5.87;;;;;;;;;;5079699;28;20223;-71
2022/11/04 09:12:01;;;;;;;11.07;6.23;;;;;;;;;;5082113;28;20176;-70
2022/11/04 09:14:27;;;;;;;10.60;5.53;;;;;;;;;;5082956;28;20177;-70
2022/11/04 09:16:55;;;;;;;17.27;4.80;;;;;;;;;;5076219;28;20272;-70
2022/11/04 09:19:21;;;;;;;15.50;4.77;;;;;;;;;;5074888;28;20185;-71
2022/11/04 09:21:47;;;;;;;12.30;5.03;;;;;;;;;;5074526;28;20182;-71
2022/11/04 09:24:13;;;;;;;16.20;7.10;;;;;;;;;;5076182;28;20198;-70
2022/11/04 09:26:39;;;;;;;10.50;5.60;;;;;;;;;;5073764;28;20266;-70
2022/11/04 09:29:08;;;;;;;10.00;5.37;;;;;;;;;;5074887;28;20176;-70
2022/11/04 09:31:34;;;;;;;14.03;5.00;;;;;;;;;;5075304;28;20231;-70
2022/11/04 09:34:00;;;;;;;13.17;5.33;;;;;;;;;;5074667;28;20661;-71
2022/11/04 09:36:28;;;;;;;11.03;4.53;;;;;;;;;;5073316;28;20235;-69
2022/11/04 09:38:54;;;;;;;9.00;4.27;;;;;;;;;;5074624;28;20174;-70
2022/11/04 09:41:20;;;;;;;15.70;5.00;;;;;;;;;;5074900;28;20184;-69
2022/11/04 09:43:52;;;;;;;11.23;4.63;;;;;;;;;;5073070;28;20206;-69
2022/11/04 09:46:19;;;;;;;12.23;4.60;;;;;;;;;;5074773;28;20321;-71
2022/11/04 09:48:50;;;;;;;13.37;5.10;;;;;;;;;;5074823;28;20201;-69
2022/11/04 09:51:17;;;;;;;10.17;4.30;;;;;;;;;;5074360;28;20638;-69
2022/11/04 09:53:46;;;;;;;12.13;4.80;;;;;;;;;;5074345;28;20205;-70
2022/11/04 09:56:18;;;;;;;12.50;5.47;;;;;;;;;;5073289;28;20178;-71
2022/11/04 09:58:44;;;;;;;10.10;4.70;;;;;;;;;;5073144;28;20307;-69
2022/11/04 10:01:33;;;;;;;13.00;4.87;;;;;;;;;;5075001;28;20640;-69
2022/11/04 10:04:05;;;;;;;16.73;4.70;;;;;;;;;;5074106;28;20251;-70
2022/11/04 10:06:49;;;;;;;18.17;5.83;;;;;;;;;;5074263;28;20191;-70
2022/11/04 10:09:22;;;;;;;13.57;5.10;;;;;;;;;;5074084;28;20227;-71
2022/11/04 10:12:04;;;;;;;12.83;5.23;;;;;;;;;;5074394;28;20205;-69
2022/11/04 10:14:33;;;;;;;12.87;4.63;;;;;;;;;;5072858;28;20232;-70
2022/11/04 10:17:18;;;;;;;13.53;4.27;;;;;;;;;;5074111;28;20185;-70
2022/11/04 10:20:07;;;;;;;14.03;5.37;;;;;;;;;;5072619;28;20212;-69
2022/11/04 10:22:53;;;;;;;15.00;5.57;;;;;;;;;;5061856;28;20241;-69
2022/11/04 10:25:24;;;;;;;10.80;5.73;;;;;;;;;;5072775;28;20189;-69
2022/11/04 10:27:51;;;;;;;16.77;5.63;;;;;;;;;;5073674;28;20225;-69
2022/11/04 10:30:21;;;;;;;12.33;4.80;;;;;;;;;;5073916;28;20200;-69
2022/11/04 10:33:19;;;;;;;12.37;4.83;;;;;;;;;;5073486;28;20212;-70
2022/11/04 10:35:50;;;;;;;8.60;3.50;;;;;;;;;;5040221;28;20190;-71
2022/11/04 10:38:27;;;;;;;10.93;4.00;;;;;;;;;;5072504;28;20185;-69
2022/11/04 10:40:54;;;;;;;6.20;2.97;;;;;;;;;;5072413;28;20169;-69
2022/11/04 10:43:25;;;;;;;9.33;2.97;;;;;;;;;;5073540;28;20206;-69
2022/11/04 10:45:51;;;;;;;9.30;3.17;;;;;;;;;;5073664;28;20162;-69
2022/11/04 10:48:25;;;;;;;7.33;3.20;;;;;;;;;;5073519;28;20561;-70
2022/11/04 10:50:55;;;;;;;14.57;3.17;;;;;;;;;;5073736;28;20166;-70
2022/11/04 10:53:25;;;;;;;8.27;3.07;;;;;;;;;;5073225;28;20319;-69
2022/11/04 10:56:10;;;;;;;7.07;2.93;;;;;;;;;;5073227;28;20657;-69
2022/11/04 10:58:39;;;;;;;11.77;3.53;;;;;;;;;;5073213;28;20177;-69
2022/11/04 11:01:23;;;;;;;10.03;3.13;;;;;;;;;;5072079;28;20299;-69
2022/11/04 11:03:49;;;;;;;8.93;3.20;;;;;;;;;;5071632;28;20252;-69
2022/11/04 11:06:24;;;;;;;7.73;3.30;;;;;;;;;;5072067;28;20178;-69
2022/11/04 11:08:51;;;;;;;8.90;3.83;;;;;;;;;;5073569;28;20197;-69
2022/11/04 11:11:33;;;;;;;9.87;3.87;;;;;;;;;;5072063;28;20174;-70
2022/11/04 11:13:59;;;;;;;8.10;3.50;;;;;;;;;;5074156;28;20208;-69
2022/11/04 11:16:26;;;;;;;11.17;3.47;;;;;;;;;;5072049;28;20173;-69
2022/11/04 11:19:08;;;;;;;7.87;3.23;;;;;;;;;;5073585;28;20225;-69
2022/11/04 11:21:42;;;;;;;6.33;3.00;;;;;;;;;;5072316;28;20264;-69
2022/11/04 11:24:15;;;;;;;7.53;2.83;;;;;;;;;;5073783;28;20262;-70
2022/11/04 11:26:47;;;;;;;6.40;3.23;;;;;;;;;;5072255;28;20645;-70
2022/11/04 11:29:15;;;;;;;8.33;2.90;;;;;;;;;;5072051;28;20173;-69
2022/11/04 11:31:40;;;;;;;10.77;2.80;;;;;;;;;;5072236;28;20187;-69
2022/11/04 11:34:13;;;;;;;9.43;3.03;;;;;;;;;;5073064;28;20713;-69
2022/11/04 11:36:40;;;;;;;9.17;2.73;;;;;;;;;;5076993;28;20610;-69
2022/11/04 11:39:17;;;;;;;9.00;3.33;;;;;;;;;;5076864;28;20599;-69
2022/11/04 11:42:05;;;;;;;10.60;3.10;;;;;;;;;;5077102;28;20166;-69
2022/11/04 11:44:47;;;;;;;8.87;3.07;;;;;;;;;;5075398;28;20186;-69
2022/11/04 11:47:35;;;;;;;24.37;15.27;;;;;;;;;;5075374;28;20220;-69
2022/11/04 11:50:18;;;;;;;11.40;4.53;;;;;;;;;;5077035;28;20150;-69
2022/11/04 11:52:44;;;;;;;10.40;3.97;;;;;;;;;;5076654;28;20186;-69
2022/11/04 11:55:27;;;;;;;9.77;3.00;;;;;;;;;;5076550;28;20185;-69
2022/11/04 11:58:25;;;;;;;17.57;3.80;;;;;;;;;;5075245;28;20212;-69
2022/11/04 12:01:11;;;;;;;7.03;4.10;;;;;;;;;;5043197;28;20194;-69
2022/11/04 12:03:39;;;;;;;13.17;3.77;;;;;;;;;;5045710;28;20230;-69
2022/11/04 12:06:14;;;;;;;8.00;3.40;;;;;;;;;;5074873;28;20192;-69
2022/11/04 12:08:43;;;;;;;11.07;3.57;;;;;;;;;;5076224;28;20208;-69
2022/11/04 12:11:15;;;;;;;7.77;3.63;;;;;;;;;;5074898;28;20289;-69
2022/11/04 12:13:44;;;;;;;9.70;3.63;;;;;;;;;;5076347;28;20194;-69
2022/11/04 12:16:13;;;;;;;8.73;4.00;;;;;;;;;;5076125;28;20178;-69
2022/11/04 12:18:49;;;;;;;13.23;3.90;;;;;;;;;;5076116;28;20220;-69
2022/11/04 12:21:15;;;;;;;8.27;2.70;;;;;;;;;;5076236;28;20177;-69
2022/11/04 12:23:45;;;;;;;10.27;3.23;;;;;;;;;;5076062;28;20198;-69
2022/11/04 12:26:31;;;;;;;9.40;3.27;;;;;;;;;;5074773;28;20178;-69
2022/11/04 12:28:57;;;;;;;8.33;2.93;;;;;;;;;;5065294;28;20229;-68
2022/11/04 12:31:30;;;;;;;9.03;3.43;;;;;;;;;;5076095;28;20202;-69
2022/11/04 12:34:20;;;;;;;11.10;3.43;;;;;;;;;;5076129;28;20198;-69
2022/11/04 12:36:47;;;;;;;10.63;3.87;;;;;;;;;;5074928;28;20213;-69
2022/11/04 12:39:13;;;;;;;8.53;3.20;;;;;;;;;;5074590;28;20650;-69
2022/11/04 12:41:57;;;;;;;9.63;3.70;;;;;;;;;;5074339;28;20253;-69
2022/11/04 12:44:26;;;;;;;10.97;3.43;;;;;;;;;;5075615;28;20198;-69
2022/11/04 12:46:52;;;;;;;10.27;5.73;;;;;;;;;;5073225;28;20185;-69
2022/11/04 12:49:37;;;;;;;9.47;4.70;;;;;;;;;;5074348;28;20708;-69
2022/11/04 12:52:30;;;;;;;6.40;3.03;;;;;;;;;;5074245;28;20166;-69
2022/11/04 12:54:56;;;;;;;9.20;3.50;;;;;;;;;;5070551;28;20208;-69
2022/11/04 12:57:22;;;;;;;11.23;5.77;;;;;;;;;;5074164;28;20189;-69
2022/11/04 12:59:54;;;;;;;11.23;4.63;;;;;;;;;;5075382;28;20192;-69
2022/11/04 13:02:23;;;;;;;9.83;4.97;;;;;;;;;;5075263;28;20214;-69
2022/11/04 13:04:59;;;;;;;11.77;3.90;;;;;;;;;;5074125;28;20243;-69
2022/11/04 13:07:30;;;;;;;13.00;4.13;;;;;;;;;;5073980;28;20194;-69
2022/11/04 13:09:58;;;;;;;11.43;4.00;;;;;;;;;;5075726;28;20166;-69
2022/11/04 13:12:28;;;;;;;6.03;3.30;;;;;;;;;;5075269;28;20201;-69
2022/11/04 13:14:56;;;;;;;9.50;3.10;;;;;;;;;;5075184;28;20177;-69
2022/11/04 13:17:39;;;;;;;14.00;3.63;;;;;;;;;;5075181;28;20200;-70
2022/11/04 13:20:13;;;;;;;10.83;3.23;;;;;;;;;;5075462;28;20216;-69
2022/11/04 13:22:40;;;;;;;17.10;5.17;;;;;;;;;;5073531;28;20292;-69
2022/11/04 13:25:16;;;;;;;8.53;3.60;;;;;;;;;;5074828;28;20188;-70
2022/11/04 13:27:44;;;;;;;10.87;3.23;;;;;;;;;;5073443;28;20255;-69
2022/11/04 13:30:29;;;;;;;9.67;3.90;;;;;;;;;;5073467;28;20181;-69
2022/11/04 13:32:57;;;;;;;10.17;4.20;;;;;;;;;;5074689;28;20284;-70
2022/11/04 13:35:42;;;;;;;7.87;3.43;;;;;;;;;;5073590;28;20657;-70
2022/11/04 13:38:12;;;;;;;12.03;3.97;;;;;;;;;;5073567;28;20182;-70
2022/11/04 13:40:44;;;;;;;8.97;3.00;;;;;;;;;;5073474;28;20189;-69
2022/11/04 13:43:38;;;;;;;9.60;3.40;;;;;;;;;;5074487;28;20205;-71
2022/11/04 13:46:10;;;;;;;10.73;3.47;;;;;;;;;;5075124;28;20539;-69
2022/11/04 13:48:37;;;;;;;11.20;3.20;;;;;;;;;;5074355;28;20632;-68
2022/11/04 13:51:08;;;;;;;6.83;3.30;;;;;;;;;;5074903;28;20223;-69
2022/11/04 13:53:40;;;;;;;7.57;3.30;;;;;;;;;;5073083;28;20206;-72
2022/11/04 13:56:07;;;;;;;10.20;4.13;;;;;;;;;;5074240;28;20239;-70
2022/11/04 13:58:33;;;;;;;9.87;3.83;;;;;;;;;;5073976;28;20185;-70
2022/11/04 14:01:13;;;;;;;10.63;4.80;;;;;;;;;;5074079;28;20208;-71
2022/11/04 14:03:50;;;;;;;12.30;3.20;;;;;;;;;;5072589;28;20229;-70
2022/11/04 14:06:16;;;;;;;11.03;3.97;;;;;;;;;;5073047;28;20226;-70
2022/11/04 14:09:17;;;;;;;10.67;3.00;;;;;;;;;;5074013;28;20198;-70
2022/11/04 14:12:02;;;;;;;10.43;3.43;;;;;;;;;;5073842;28;20261;-70
2022/11/04 14:14:28;;;;;;;8.50;2.93;;;;;;;;;;5072589;28;20184;-70
2022/11/04 14:16:54;;;;;;;8.67;3.73;;;;;;;;;;5073837;28;20178;-70
2022/11/04 14:19:46;;;;;;;11.97;3.30;;;;;;;;;;5072379;28;20239;-71
2022/11/04 14:22:14;;;;;;;10.03;3.00;;;;;;;;;;5072554;28;20178;-70
2022/11/04 14:24:41;;;;;;;12.23;3.23;;;;;;;;;;5074337;28;20256;-70
2022/11/04 14:27:22;;;;;;;10.67;3.07;;;;;;;;;;5072443;28;20233;-70
2022/11/04 14:32:23;;;;;;;8.97;3.47;;;;;;;;;;5093229;28;20247;-67
2022/11/04 14:34:56;;;;;;;247.90;74.53;;;;;;;;;;5094768;28;20200;-65
2022/11/04 14:37:24;;;;;;;29.70;12.93;;;;;;;;;;5094653;28;20161;-65
2022/11/04 14:39:59;;;;;;;83.57;68.40;;;;;;;;;;5093946;28;20653;-65
2022/11/04 14:42:44;;;;;;;15.07;5.47;;;;;;;;;;5094628;28;20225;-64
2022/11/04 14:45:15;;;;;;;11.70;3.40;;;;;;;;;;5093986;28;20251;-66
2022/11/04 14:47:42;;;;;;;8.27;3.10;;;;;;;;;;5093472;28;20228;-66
2022/11/04 14:50:16;;;;;;;8.40;3.30;;;;;;;;;;5093566;28;20276;-66
2022/11/04 14:52:42;;;;;;;9.03;2.83;;;;;;;;;;5093570;28;20164;-66
2022/11/04 14:55:11;;;;;;;8.30;3.27;;;;;;;;;;5093726;28;20173;-67
2022/11/04 14:57:38;;;;;;;9.43;3.70;;;;;;;;;;5075415;28;20559;-67
2022/11/04 15:00:20;;;;;;;13.10;3.90;;;;;;;;;;5076316;28;20204;-66
2022/11/04 15:02:47;;;;;;;13.83;3.63;;;;;;;;;;5093667;28;20176;-67
2022/11/04 15:05:24;;;;;;;8.67;3.70;;;;;;;;;;5093468;28;20181;-64
2022/11/04 15:07:50;;;;;;;8.27;3.43;;;;;;;;;;5075321;28;20204;-64
2022/11/04 15:10:23;;;;;;;9.47;3.47;;;;;;;;;;5074645;28;20692;-66
2022/11/04 15:12:49;;;;;;;14.37;3.77;;;;;;;;;;5094676;28;20181;-67
2022/11/04 15:15:26;;;;;;;12.27;3.70;;;;;;;;;;5076127;28;20185;-65
2022/11/04 15:17:52;;;;;;;8.03;3.43;;;;;;;;;;5075177;28;20559;-67
2022/11/04 15:20:23;;;;;;;6.17;3.40;;;;;;;;;;5093255;28;20204;-64
2022/11/04 15:22:49;;;;;;;7.67;3.60;;;;;;;;;;5093200;28;20188;-65
2022/11/04 15:25:16;;;;;;;11.60;4.33;;;;;;;;;;5075034;28;20277;-64